Aviation Digital Data Service (ADDS)

Output produced by METARs form (1739 UTC 22 July 2014)
found at http://aviationweather.gov/adds/metars/
 
KVQQ 221733Z 2218/2318 08007KT P6SM VCTS BKN035CB 
     TEMPO 2218/2222 VRB15G30KT 3SM TSRA BKN030CB 
     FM230000 10003KT P6SM SCT040 SCT250 
     FM230500 00000KT P6SM FEW250 
     FM230900 00000KT 4SM BR FEW250 
     FM231200 00000KT P6SM FEW250 
     FM231500 26003KT P6SM SCT020 SCT250